createdAt,value
2016-04-21T20:01:30.739Z,38
2016-04-21T20:01:43.551Z,38
2016-04-21T20:01:56.379Z,38
2016-04-21T20:02:09.304Z,38
2016-04-21T20:02:22.257Z,38
2016-04-21T20:02:34.992Z,38
2016-04-21T20:02:47.960Z,38
2016-04-21T20:03:00.945Z,38
2016-04-21T20:03:13.713Z,38
2016-04-21T20:03:26.667Z,37
2016-04-21T20:03:39.651Z,37
2016-04-21T20:03:52.463Z,37
2016-04-21T20:04:05.276Z,37
2016-04-21T20:04:18.326Z,37
2016-04-21T20:04:31.107Z,37
2016-04-21T20:04:43.888Z,37
2016-04-21T20:04:56.779Z,38
2016-04-21T20:05:09.781Z,38
2016-04-21T20:05:22.718Z,38
2016-04-21T20:05:35.468Z,38
2016-04-21T20:05:48.453Z,38
2016-04-21T20:06:01.390Z,38
2016-04-21T20:06:14.127Z,38
2016-04-21T20:06:27.111Z,38
2016-04-21T20:06:40.080Z,38
2016-04-21T20:06:52.892Z,39
2016-04-21T20:07:05.736Z,39
2016-04-21T20:07:18.787Z,39
2016-04-21T20:07:31.568Z,38
2016-04-21T20:07:44.584Z,38
2016-04-21T20:07:57.334Z,37
2016-04-21T20:08:10.258Z,37
2016-04-21T20:08:23.211Z,37
2016-04-21T20:08:36.008Z,38
2016-04-21T20:08:48.898Z,38
2016-04-21T20:09:01.961Z,38
2016-04-21T20:09:14.745Z,38
2016-04-21T20:09:27.542Z,38
2016-04-21T20:09:40.542Z,38
2016-04-21T20:09:53.386Z,38
2016-04-21T20:10:06.167Z,38
2016-04-21T20:10:19.139Z,38
2016-04-21T20:10:31.967Z,38
2016-04-21T20:10:44.920Z,38
2016-04-21T20:10:57.873Z,38
2016-04-21T20:11:10.626Z,38
2016-04-21T20:11:23.579Z,38
2016-04-21T20:11:36.564Z,38
2016-04-21T20:11:49.345Z,38
2016-04-21T20:12:02.345Z,38
2016-04-21T20:12:15.330Z,38
2016-04-21T20:12:28.127Z,38
2016-04-21T20:12:40.986Z,38
2016-04-21T20:12:54.033Z,38
2016-04-21T20:13:06.768Z,38
2016-04-21T20:13:20.397Z,38
2016-04-21T20:13:35.365Z,39
2016-04-21T20:13:51.147Z,39
2016-04-21T20:14:04.615Z,38
2016-04-21T20:14:17.633Z,38
2016-04-21T20:14:30.399Z,38
2016-04-21T20:14:43.227Z,38
2016-04-21T20:14:56.242Z,39
2016-04-21T20:15:09.089Z,38
2016-04-21T20:15:21.886Z,38
2016-04-21T20:15:34.886Z,37
2016-04-21T20:15:47.870Z,38
2016-04-21T20:16:01.933Z,38
2016-04-21T20:16:14.873Z,39
2016-04-21T20:16:27.608Z,39
2016-04-21T20:16:40.592Z,39
2016-04-21T20:16:53.655Z,39
2016-04-21T20:17:06.452Z,39
2016-04-21T20:17:19.391Z,39
2016-04-21T20:17:32.375Z,38
2016-04-21T20:17:45.188Z,39
2016-04-21T20:17:57.985Z,39
2016-04-21T20:18:11.035Z,38
2016-04-21T20:18:23.832Z,38
2016-04-21T20:18:37.285Z,38
2016-04-21T20:18:50.222Z,38
2016-04-21T20:19:03.160Z,38
2016-04-21T20:32:08.351Z,37
2016-04-21T20:32:21.307Z,42
2016-04-21T20:32:34.026Z,42
2016-04-21T20:32:46.963Z,42
2016-04-21T20:32:59.948Z,42
2016-04-21T20:33:12.685Z,42
2016-04-21T20:33:25.607Z,42
2016-04-21T20:33:38.576Z,42
2016-04-21T20:33:51.482Z,42
2016-04-21T20:34:04.232Z,42
2016-04-21T20:34:17.062Z,42
2016-04-21T20:34:30.093Z,42
2016-04-21T20:34:42.921Z,42
2016-04-21T20:34:55.703Z,42
2016-04-21T20:35:08.671Z,42
2016-04-21T20:35:21.580Z,42
2016-04-21T20:35:34.298Z,42
2016-04-21T20:35:47.314Z,42
2016-04-21T20:36:00.267Z,42
2016-04-21T20:36:13.020Z,42
2016-04-21T20:36:25.973Z,42
2016-04-21T20:36:38.801Z,42
2016-04-21T20:36:51.723Z,42
2016-04-21T20:37:04.692Z,42
2016-04-21T20:37:17.492Z,42
2016-04-21T20:37:30.304Z,42
2016-04-21T20:37:43.367Z,42
2016-04-21T20:37:56.226Z,42
2016-04-21T20:38:08.992Z,43
2016-04-21T20:38:22.025Z,43
2016-04-21T20:38:34.869Z,43
2016-04-21T20:38:47.666Z,43
2016-04-21T20:39:00.635Z,43
2016-04-21T20:39:13.591Z,43
2016-04-21T20:39:26.497Z,43
2016-04-21T20:39:39.231Z,43
2016-04-21T20:39:52.184Z,42
2016-04-21T20:40:05.153Z,42
2016-04-21T20:40:17.969Z,42
2016-04-21T20:40:30.797Z,42
2016-04-21T20:40:43.812Z,42
2016-04-21T20:40:56.937Z,42
2016-04-21T20:41:09.703Z,42
2016-04-21T20:41:22.753Z,42
2016-04-21T20:41:35.581Z,42
2016-04-21T20:41:48.487Z,42
2016-04-21T20:42:01.394Z,42
2016-04-21T20:42:14.271Z,42
2016-04-21T20:42:27.317Z,42
2016-04-21T20:42:40.099Z,42
2016-04-21T20:42:52.911Z,42
2016-04-21T20:43:05.958Z,42
2016-04-21T20:43:18.805Z,42
2016-04-21T20:43:31.602Z,42
2016-04-21T20:43:44.555Z,42
2016-04-21T20:43:57.508Z,42
2016-04-21T20:44:10.258Z,42
2016-04-21T20:44:23.245Z,42
2016-04-21T20:44:36.245Z,42
2016-04-21T20:44:49.027Z,42
2016-04-21T20:45:01.995Z,42
2016-04-21T20:45:14.764Z,42
2016-04-21T20:45:27.748Z,42
2016-04-21T20:45:40.717Z,42
2016-04-21T20:45:54.967Z,42
2016-04-21T20:46:07.795Z,42
2016-04-21T20:46:20.829Z,42
2016-04-21T20:46:33.611Z,42
2016-04-21T20:46:46.423Z,42
2016-04-21T20:46:59.439Z,42
2016-04-21T20:48:02.644Z,42
2016-04-21T20:48:15.443Z,42
2016-04-21T20:48:28.521Z,42
2016-04-21T20:48:41.318Z,42
2016-04-21T20:48:54.146Z,42
2016-04-21T20:49:07.177Z,42
2016-04-21T20:49:19.977Z,42
2016-04-21T20:49:32.696Z,42
2016-04-21T20:49:46.618Z,42
2016-04-21T20:49:59.461Z,42
2016-04-21T20:50:12.246Z,42
2016-04-21T21:03:18.124Z,42
2016-04-21T21:03:34.203Z,42
2016-04-21T21:03:49.187Z,42
2016-04-21T21:04:05.406Z,42
2016-04-21T21:04:20.331Z,42
2016-04-21T21:04:33.112Z,42
2016-04-21T21:04:46.159Z,42
2016-04-21T21:04:59.018Z,42
2016-04-21T21:05:11.801Z,42
2016-04-21T21:05:24.739Z,42
2016-04-21T21:05:37.739Z,42
2016-04-21T21:05:50.520Z,42
2016-04-21T21:06:03.473Z,42
2016-04-21T21:06:16.507Z,42
2016-04-21T21:06:29.367Z,42
2016-04-21T21:06:42.304Z,42
2016-04-21T21:06:55.117Z,42
2016-04-21T21:07:08.086Z,42
2016-04-21T21:07:22.042Z,42
2016-04-21T21:07:37.870Z,42
2016-04-21T21:07:55.651Z,42
2016-04-21T21:08:12.872Z,42
2016-04-21T21:08:27.512Z,42
2016-04-21T21:08:40.872Z,42
2016-04-21T21:08:54.466Z,42
2016-04-21T21:09:07.434Z,42
2016-04-21T21:09:20.422Z,42
2016-04-21T21:09:34.328Z,42
2016-04-21T21:09:49.234Z,42
2016-04-21T21:10:04.172Z,42
2016-04-21T21:10:18.018Z,42
2016-04-21T21:10:31.128Z,42
2016-04-21T21:10:44.081Z,42
2016-04-21T21:10:56.831Z,42
2016-04-21T21:11:09.831Z,42
2016-04-21T21:11:23.084Z,42
2016-04-21T21:11:35.834Z,42
2016-04-21T21:11:48.818Z,42
2016-04-21T21:12:01.850Z,42
2016-04-21T21:12:14.805Z,42
2016-04-21T21:12:30.289Z,42
2016-04-21T21:12:43.414Z,42
2016-04-21T21:12:56.398Z,42
2016-04-21T21:13:09.336Z,42
2016-04-21T21:13:22.120Z,42
2016-04-21T21:13:35.167Z,42
2016-04-21T21:13:48.151Z,42
2016-04-21T21:14:01.011Z,42
2016-04-21T21:14:14.623Z,42
2016-04-21T21:14:30.623Z,42
2016-04-21T21:14:45.686Z,42
2016-04-21T21:14:59.983Z,42
2016-04-21T21:15:13.047Z,42
2016-04-21T21:15:25.813Z,42
2016-04-21T21:15:38.875Z,42
2016-04-21T21:15:53.031Z,42
2016-04-21T21:16:05.844Z,42
2016-04-21T21:16:18.847Z,42
2016-04-21T21:16:31.863Z,42
2016-04-21T21:16:44.628Z,42
2016-04-21T21:16:57.613Z,42
2016-04-21T21:17:10.659Z,42
2016-04-21T21:17:23.459Z,42
2016-04-21T21:17:36.459Z,42
2016-04-21T21:17:49.444Z,42
2016-04-21T21:18:02.225Z,42
2016-04-21T21:18:15.197Z,42
2016-04-21T21:18:27.994Z,42
2016-04-21T21:18:41.009Z,42
2016-04-21T21:18:54.103Z,42
2016-04-21T21:19:08.603Z,42
2016-04-21T21:19:22.152Z,42
2016-04-21T21:19:35.417Z,42
2016-04-21T21:19:48.261Z,42
2016-04-21T21:20:01.089Z,42
2016-04-21T21:20:14.124Z,42
2016-04-21T21:20:26.905Z,42
2016-04-21T21:20:39.702Z,42
2016-04-21T21:20:52.592Z,42
2016-04-21T21:21:05.592Z,42
2016-04-21T21:34:15.146Z,42
2016-04-21T21:34:31.583Z,43
2016-04-21T21:34:45.521Z,43
2016-04-21T21:34:58.615Z,43
2016-04-21T21:35:11.568Z,43
2016-04-21T21:35:24.398Z,43
2016-04-21T21:35:37.367Z,43
2016-04-21T21:35:50.289Z,43
2016-04-21T21:36:03.148Z,43
2016-04-21T21:36:15.963Z,43
2016-04-21T21:36:29.010Z,43
2016-04-21T21:36:41.823Z,43
2016-04-21T21:36:54.635Z,43
2016-04-21T21:37:07.667Z,43
2016-04-21T21:37:20.513Z,43
2016-04-21T21:37:33.341Z,43
2016-04-21T21:37:46.732Z,43
2016-04-21T21:37:59.763Z,43
2016-04-21T21:38:14.140Z,43
2016-04-21T21:38:27.906Z,43
2016-04-21T21:38:41.531Z,43
2016-04-21T21:38:55.218Z,43
2016-04-21T21:39:08.875Z,43
2016-04-21T21:39:22.018Z,43
2016-04-21T21:39:36.018Z,43
2016-04-21T21:39:49.456Z,43
2016-04-21T21:40:02.737Z,43
2016-04-21T21:40:16.787Z,43
2016-04-21T21:40:31.006Z,43
2016-04-21T21:40:44.115Z,43
2016-04-21T21:40:57.146Z,43
2016-04-21T21:41:10.943Z,43
2016-04-21T21:41:23.680Z,43
2016-04-21T21:41:36.726Z,43
2016-04-21T21:41:49.523Z,43
2016-04-21T21:42:02.633Z,43
2016-04-21T21:42:15.464Z,43
2016-04-21T21:42:28.433Z,43
2016-04-21T21:42:41.948Z,43
2016-04-21T21:42:54.917Z,43
2016-04-21T21:43:07.683Z,43
2016-04-21T21:43:20.700Z,43
2016-04-21T21:43:33.685Z,43
2016-04-21T21:43:46.435Z,43
2016-04-21T21:43:59.388Z,43
2016-04-21T21:44:12.372Z,43
2016-04-21T21:44:25.156Z,43
2016-04-21T21:44:38.141Z,43
2016-04-21T21:44:50.953Z,43
2016-04-21T21:45:03.766Z,43
2016-04-21T21:45:16.800Z,43
2016-04-21T21:45:29.581Z,43
2016-04-21T21:45:42.394Z,43
2016-04-21T21:45:57.019Z,43
2016-04-21T21:46:09.878Z,43
2016-04-21T21:46:22.694Z,43
2016-04-21T21:46:35.678Z,43
2016-04-21T21:46:48.631Z,43
2016-04-21T21:47:01.397Z,43
2016-04-21T21:47:14.336Z,43
2016-04-21T21:47:27.336Z,43
2016-04-21T21:47:40.289Z,43
2016-04-21T21:47:53.102Z,43
2016-04-21T21:48:06.258Z,43
2016-04-21T21:48:21.120Z,43
2016-04-21T21:48:34.527Z,43
2016-04-21T21:48:47.339Z,43
2016-04-21T21:49:01.183Z,43
2016-04-21T21:49:14.592Z,43
2016-04-21T21:49:27.467Z,43
2016-04-21T21:49:41.452Z,43
2016-04-21T21:49:54.936Z,43
2016-04-21T21:50:08.483Z,43
2016-04-21T21:50:22.455Z,43
2016-04-21T21:50:35.439Z,43
2016-04-21T21:50:49.423Z,43
2016-04-21T21:51:03.080Z,43
2016-04-21T21:51:15.847Z,43
2016-04-21T21:51:29.535Z,43
2016-04-21T21:51:42.628Z,43
2016-04-21T21:51:55.457Z,43
2016-04-21T22:05:02.898Z,44
2016-04-21T22:05:15.948Z,44
2016-04-21T22:05:29.354Z,44
2016-04-21T22:05:42.495Z,44
2016-04-21T22:05:56.088Z,44
2016-04-21T22:06:09.088Z,44
2016-04-21T22:06:22.044Z,44
2016-04-21T22:06:35.029Z,44
2016-04-21T22:06:47.779Z,44
2016-04-21T22:07:01.279Z,44
2016-04-21T22:07:17.968Z,44
2016-04-21T22:07:31.671Z,44
2016-04-21T22:07:44.625Z,44
2016-04-21T22:07:57.812Z,44
2016-04-21T22:08:11.296Z,44
2016-04-21T22:08:24.221Z,44
2016-04-21T22:08:37.284Z,43
2016-04-21T22:08:52.346Z,43
2016-04-21T22:09:06.581Z,43
2016-04-21T22:09:21.537Z,43
2016-04-21T22:09:35.240Z,43
2016-04-21T22:09:48.443Z,43
2016-04-21T22:10:02.021Z,43
2016-04-21T22:10:15.602Z,43
2016-04-21T22:10:28.587Z,43
2016-04-21T22:10:41.368Z,43
2016-04-21T22:10:54.321Z,43
2016-04-21T22:11:07.227Z,43
2016-04-21T22:11:20.651Z,43
2016-04-21T22:11:33.432Z,43
2016-04-21T22:11:46.854Z,43
2016-04-21T22:12:00.917Z,43
2016-04-21T22:12:13.701Z,43
2016-04-21T22:12:26.670Z,43
2016-04-21T22:12:39.654Z,43
2016-04-21T22:12:52.404Z,43
2016-04-21T22:13:05.295Z,43
2016-04-21T22:13:18.282Z,43
2016-04-21T22:13:31.267Z,43
2016-04-21T22:13:44.079Z,43
2016-04-21T22:13:56.938Z,43
2016-04-21T22:14:09.970Z,43
2016-04-21T22:14:22.862Z,43
2016-04-21T22:14:35.659Z,43
2016-04-21T22:14:51.112Z,43
2016-04-21T22:15:04.347Z,43
2016-04-21T22:15:17.083Z,43
2016-04-21T22:15:30.114Z,43
2016-04-21T22:15:43.083Z,43
2016-04-21T22:15:56.880Z,44
2016-04-21T22:16:10.099Z,43
2016-04-21T22:16:23.070Z,43
2016-04-21T22:16:35.992Z,43
2016-04-21T22:16:49.258Z,43
2016-04-21T22:17:02.039Z,43
2016-04-21T22:17:15.198Z,43
2016-04-21T22:17:28.261Z,43
2016-04-21T22:17:41.027Z,43
2016-04-21T22:17:53.995Z,43
2016-04-21T22:18:06.933Z,43
2016-04-21T22:18:19.936Z,43
2016-04-21T22:18:32.967Z,43
2016-04-21T22:18:46.498Z,43
2016-04-21T22:18:59.248Z,44
2016-04-21T22:19:12.326Z,44
2016-04-21T22:19:25.329Z,44
2016-04-21T22:19:38.111Z,44
2016-04-21T22:19:51.158Z,44
2016-04-21T22:20:04.017Z,44
2016-04-21T22:20:16.831Z,44
2016-04-21T22:20:30.081Z,44
2016-04-21T22:20:43.003Z,44
2016-04-21T22:20:55.753Z,44
2016-04-21T22:21:08.706Z,43
2016-04-21T22:21:21.693Z,43
2016-04-21T22:21:34.443Z,43
2016-04-21T22:21:47.349Z,44
2016-04-21T22:22:00.490Z,44
2016-04-21T22:22:13.977Z,44
2016-04-21T22:22:26.915Z,44
2016-04-21T22:22:39.649Z,44
2016-04-21T22:35:42.637Z,44
2016-04-21T22:35:56.590Z,44
2016-04-21T22:36:09.481Z,44
2016-04-21T22:36:23.078Z,44
2016-04-21T22:36:36.046Z,44
2016-04-21T22:36:50.171Z,44
2016-04-21T22:37:02.921Z,44
2016-04-21T22:37:15.909Z,44
2016-04-21T22:37:30.018Z,44
2016-04-21T22:37:42.987Z,44
2016-04-21T22:37:55.877Z,44
2016-04-21T22:38:08.721Z,44
2016-04-21T22:38:21.865Z,44
2016-04-21T22:38:34.615Z,44
2016-04-21T22:38:47.334Z,44
2016-04-21T22:39:00.365Z,44
2016-04-21T22:39:13.193Z,44
2016-04-21T22:39:28.165Z,44
2016-04-21T22:39:42.571Z,44
2016-04-21T22:39:55.477Z,44
2016-04-21T22:40:08.493Z,43
2016-04-21T22:40:21.260Z,43
2016-04-21T22:40:34.073Z,44
2016-04-21T22:40:47.104Z,44
2016-04-21T22:40:59.932Z,44
2016-04-21T22:41:12.760Z,44
2016-04-21T22:41:25.810Z,44
2016-04-21T22:41:38.795Z,44
2016-04-21T22:41:51.545Z,44
2016-04-21T22:42:04.717Z,44
2016-04-21T22:42:17.719Z,44
2016-04-21T22:42:30.453Z,44
2016-04-21T22:42:43.578Z,44
2016-04-21T22:42:56.406Z,44
2016-04-21T22:43:09.422Z,44
2016-04-21T22:43:22.440Z,44
2016-04-21T22:43:35.440Z,44
2016-04-21T22:43:48.253Z,44
2016-04-21T22:44:01.268Z,44
2016-04-21T22:44:14.693Z,44
2016-04-21T22:44:27.693Z,44
2016-04-21T22:44:41.318Z,44
2016-04-21T22:44:54.350Z,44
2016-04-21T22:45:08.553Z,44
2016-04-21T22:45:21.492Z,44
2016-04-21T22:45:34.492Z,44
2016-04-21T22:45:48.008Z,44
2016-04-21T22:46:01.117Z,44
2016-04-21T22:46:13.930Z,44
2016-04-21T22:46:27.245Z,44
2016-04-21T22:46:40.245Z,44
2016-04-21T22:46:53.151Z,44
2016-04-21T22:47:05.917Z,44
2016-04-21T22:47:18.904Z,44
2016-04-21T22:47:31.889Z,44
2016-04-21T22:47:44.623Z,44
2016-04-21T22:47:57.592Z,44
2016-04-21T22:48:10.576Z,44
2016-04-21T22:48:23.423Z,44
2016-04-21T22:48:36.454Z,44
2016-04-21T22:48:49.267Z,44
2016-04-21T22:49:02.282Z,44
2016-04-21T22:49:15.378Z,44
2016-04-21T22:49:28.222Z,44
2016-04-21T22:49:41.706Z,44
2016-04-21T22:49:54.784Z,44
2016-04-21T22:50:07.784Z,44
2016-04-21T22:50:20.662Z,44
2016-04-21T22:50:37.287Z,44
2016-04-21T22:50:50.381Z,44
2016-04-21T22:51:03.131Z,44
2016-04-21T22:51:16.102Z,44
2016-04-21T22:51:28.899Z,44
2016-04-21T22:51:41.930Z,44
2016-04-21T22:52:13.227Z,44
2016-04-21T22:52:33.511Z,44
2016-04-21T22:52:46.496Z,44
2016-04-21T22:52:59.464Z,44
2016-04-21T22:53:12.183Z,44
2016-04-21T22:53:27.874Z,44
2016-04-21T23:05:35.171Z,44
2016-04-21T23:05:55.406Z,44
2016-04-21T23:06:08.359Z,44
2016-04-21T23:06:21.096Z,44
2016-04-21T23:06:34.034Z,44
2016-04-21T23:07:42.832Z,44
2016-04-21T23:07:56.223Z,44
2016-04-21T23:08:09.161Z,44
2016-04-21T23:08:22.132Z,44
2016-04-21T23:08:34.929Z,44
2016-04-21T23:08:47.789Z,44
2016-04-21T23:09:08.242Z,44
2016-04-21T23:09:21.213Z,44
2016-04-21T23:09:34.026Z,44
2016-04-21T23:09:47.088Z,44
2016-04-21T23:10:00.401Z,44
2016-04-21T23:10:13.573Z,44
2016-04-21T23:10:26.590Z,44
2016-04-21T23:10:39.419Z,45
2016-04-21T23:10:52.403Z,44
2016-04-21T23:11:05.434Z,44
2016-04-21T23:11:18.172Z,45
2016-04-21T23:11:31.156Z,45
2016-04-21T23:11:44.140Z,45
2016-04-21T23:11:57.015Z,44
2016-04-21T23:12:09.937Z,44
2016-04-21T23:12:23.050Z,44
2016-04-21T23:12:35.925Z,44
2016-04-21T23:12:48.800Z,44
2016-04-21T23:13:01.596Z,44
2016-04-21T23:13:14.643Z,44
2016-04-21T23:13:27.645Z,45
2016-04-21T23:13:40.458Z,45
2016-04-21T23:13:53.442Z,45
2016-04-21T23:14:06.380Z,45
2016-04-21T23:14:19.117Z,45
2016-04-21T23:14:32.117Z,45
2016-04-21T23:14:45.539Z,45
2016-04-21T23:14:58.898Z,45
2016-04-21T23:15:12.195Z,45
2016-04-21T23:15:24.965Z,46
2016-04-21T23:15:37.934Z,45
2016-04-21T23:15:51.871Z,45
2016-04-21T23:16:04.871Z,45
2016-04-21T23:16:17.856Z,45
2016-04-21T23:16:30.841Z,45
2016-04-21T23:16:46.763Z,45
2016-04-21T23:16:59.669Z,45
2016-04-21T23:17:16.656Z,45
2016-04-21T23:17:36.844Z,44
2016-04-21T23:17:53.359Z,44
2016-04-21T23:18:08.516Z,44
2016-04-21T23:18:23.362Z,44
2016-04-21T23:18:36.894Z,44
2016-04-21T23:18:49.675Z,44
2016-04-21T23:19:02.441Z,44
2016-04-21T23:19:15.472Z,44
2016-04-21T23:19:28.303Z,44
2016-04-21T23:19:41.100Z,44
2016-04-21T23:19:54.069Z,44
2016-04-21T23:20:07.022Z,44
2016-04-21T23:20:19.759Z,44
2016-04-21T23:20:32.712Z,44
2016-04-21T23:20:45.697Z,44
2016-04-21T23:20:58.447Z,44
2016-04-21T23:21:14.134Z,44
2016-04-21T23:21:29.106Z,44
2016-04-21T23:21:42.825Z,44
2016-04-21T23:21:57.059Z,44
2016-04-21T23:22:11.371Z,44
2016-04-21T23:22:25.483Z,44
2016-04-21T23:22:39.327Z,44
2016-04-21T23:22:53.405Z,44
2016-04-21T23:23:07.452Z,44
2016-04-21T23:23:21.673Z,44
2016-04-21T23:23:34.720Z,44
2016-04-21T23:23:47.767Z,44
2016-04-21T23:24:01.876Z,44
2016-04-21T23:24:14.845Z,44
2016-04-21T23:24:27.613Z,44
2016-04-21T23:24:40.644Z,44
2016-04-21T23:36:45.254Z,44
2016-04-21T23:36:58.051Z,44
2016-04-21T23:37:10.817Z,44
2016-04-21T23:37:23.835Z,44
2016-04-21T23:37:36.663Z,45
2016-04-21T23:38:45.510Z,45
2016-04-21T23:38:58.557Z,45
2016-04-21T23:39:12.745Z,45
2016-04-21T23:39:25.998Z,45
2016-04-21T23:39:40.263Z,45
2016-04-21T23:39:53.091Z,45
2016-04-21T23:40:06.107Z,45
2016-04-21T23:40:18.921Z,44
2016-04-21T23:40:31.687Z,42
2016-04-21T23:40:44.703Z,40
2016-04-21T23:40:57.531Z,38
2016-04-21T23:41:10.296Z,37
2016-04-21T23:41:23.268Z,37
2016-04-21T23:41:36.190Z,36
2016-04-21T23:41:48.909Z,36
2016-04-21T23:42:01.831Z,36
2016-04-21T23:42:14.721Z,36
2016-04-21T23:42:27.740Z,39
2016-04-21T23:42:40.521Z,38
2016-04-21T23:42:53.334Z,38
2016-04-21T23:43:06.349Z,38
2016-04-21T23:43:19.117Z,37
2016-04-21T23:43:31.914Z,36
2016-04-21T23:43:45.070Z,36
2016-04-21T23:43:57.867Z,36
2016-04-21T23:44:10.617Z,36
2016-04-21T23:44:23.557Z,36
2016-04-21T23:44:36.464Z,36
2016-04-21T23:44:49.354Z,36
2016-04-21T23:45:02.104Z,36
2016-04-21T23:45:14.776Z,36
2016-04-21T23:45:27.748Z,36
2016-04-21T23:45:40.498Z,36
2016-04-21T23:45:54.107Z,36
2016-04-21T23:46:07.092Z,36
2016-04-21T23:46:19.970Z,36
2016-04-21T23:46:32.657Z,36
2016-04-21T23:46:45.595Z,36
2016-04-21T23:46:58.517Z,36
2016-04-21T23:47:11.204Z,36
2016-04-21T23:47:24.097Z,36
2016-04-21T23:47:36.862Z,36
2016-04-21T23:47:49.800Z,36
2016-04-21T23:48:02.644Z,36
2016-04-21T23:48:15.409Z,36
2016-04-21T23:48:28.178Z,36
2016-04-21T23:48:41.084Z,37
2016-04-21T23:48:53.834Z,37
2016-04-21T23:49:06.584Z,37
2016-04-21T23:49:19.556Z,37
2016-04-21T23:49:32.353Z,37
2016-04-21T23:49:45.103Z,37
2016-04-21T23:49:58.009Z,37
2016-04-21T23:50:10.915Z,37
2016-04-21T23:50:23.809Z,37
2016-04-21T23:50:36.559Z,37
2016-04-21T23:50:49.246Z,37
2016-04-21T23:51:02.215Z,37
2016-04-21T23:51:15.028Z,37
2016-04-21T23:51:27.764Z,37
2016-04-21T23:51:40.670Z,37
2016-04-21T23:51:53.561Z,37
2016-04-21T23:53:05.646Z,37
2016-04-21T23:53:20.414Z,37
2016-04-21T23:53:33.476Z,37
2016-04-21T23:53:46.420Z,37
2016-04-21T23:53:59.761Z,37
2016-04-21T23:54:12.777Z,37
2016-04-21T23:54:25.842Z,37
2016-04-21T23:54:38.702Z,37
2016-04-21T23:54:51.561Z,37
2016-04-21T23:55:04.624Z,37
2016-04-21T23:55:17.361Z,37
2016-04-21T23:55:31.837Z,37
2016-04-21T23:55:44.916Z,37
2016-04-21T23:55:57.837Z,37
